sensor_id;sensor_type;location;lat;lon;timestamp;temperature;humidity
66096;SHT31;53861;53.422;14.530;2024-02-15T00:00:53;8.64;99.99
66096;SHT31;53861;53.422;14.530;2024-02-15T00:03:20;8.72;99.99
66096;SHT31;53861;53.422;14.530;2024-02-15T00:05:49;8.70;99.99
66096;SHT31;53861;53.422;14.530;2024-02-15T00:08:16;8.68;99.99
66096;SHT31;53861;53.422;14.530;2024-02-15T00:10:45;8.77;99.99
66096;SHT31;53861;53.422;14.530;2024-02-15T00:13:13;8.82;99.99
66096;SHT31;53861;53.422;14.530;2024-02-15T00:15:40;8.72;99.99
66096;SHT31;53861;53.422;14.530;2024-02-15T00:18:08;8.72;99.99
66096;SHT31;53861;53.422;14.530;2024-02-15T00:20:35;8.70;99.99
66096;SHT31;53861;53.422;14.530;2024-02-15T00:23:04;8.72;99.99
66096;SHT31;53861;53.422;14.530;2024-02-15T00:25:32;8.61;99.99
66096;SHT31;53861;53.422;14.530;2024-02-15T00:27:59;8.68;99.99
66096;SHT31;53861;53.422;14.530;2024-02-15T00:30:27;8.70;99.99
66096;SHT31;53861;53.422;14.530;2024-02-15T00:32:55;8.63;99.99
66096;SHT31;53861;53.422;14.530;2024-02-15T00:35:22;8.56;99.99
66096;SHT31;53861;53.422;14.530;2024-02-15T00:37:50;8.59;99.99
66096;SHT31;53861;53.422;14.530;2024-02-15T00:40:19;8.63;99.99
66096;SHT31;53861;53.422;14.530;2024-02-15T00:42:47;8.64;99.99
66096;SHT31;53861;53.422;14.530;2024-02-15T00:45:14;8.61;99.99
66096;SHT31;53861;53.422;14.530;2024-02-15T00:47:42;8.65;99.99
66096;SHT31;53861;53.422;14.530;2024-02-15T00:50:09;8.65;99.99
66096;SHT31;53861;53.422;14.530;2024-02-15T00:52:36;8.72;99.99
66096;SHT31;53861;53.422;14.530;2024-02-15T00:55:04;8.64;99.99
66096;SHT31;53861;53.422;14.530;2024-02-15T00:57:33;8.68;99.99
66096;SHT31;53861;53.422;14.530;2024-02-15T01:00:00;8.82;99.99
66096;SHT31;53861;53.422;14.530;2024-02-15T01:02:29;8.68;99.99
66096;SHT31;53861;53.422;14.530;2024-02-15T01:04:56;8.72;99.99
66096;SHT31;53861;53.422;14.530;2024-02-15T01:07:25;8.65;99.99
66096;SHT31;53861;53.422;14.530;2024-02-15T01:09:53;8.68;99.99
66096;SHT31;53861;53.422;14.530;2024-02-15T01:12:21;8.70;99.99
66096;SHT31;53861;53.422;14.530;2024-02-15T01:14:50;8.68;99.99
66096;SHT31;53861;53.422;14.530;2024-02-15T01:17:17;8.75;99.99
66096;SHT31;53861;53.422;14.530;2024-02-15T01:19:44;8.87;99.99
66096;SHT31;53861;53.422;14.530;2024-02-15T01:22:12;8.70;99.99
66096;SHT31;53861;53.422;14.530;2024-02-15T01:24:39;8.70;99.99
66096;SHT31;53861;53.422;14.530;2024-02-15T01:27:06;8.74;99.99
66096;SHT31;53861;53.422;14.530;2024-02-15T01:29:35;8.75;99.99
66096;SHT31;53861;53.422;14.530;2024-02-15T01:32:04;8.84;99.99
66096;SHT31;53861;53.422;14.530;2024-02-15T01:34:32;8.78;99.99
66096;SHT31;53861;53.422;14.530;2024-02-15T01:36:59;8.80;99.99
66096;SHT31;53861;53.422;14.530;2024-02-15T01:39:26;8.87;99.99
66096;SHT31;53861;53.422;14.530;2024-02-15T01:41:54;8.87;99.99
66096;SHT31;53861;53.422;14.530;2024-02-15T01:44:22;8.88;99.99
66096;SHT31;53861;53.422;14.530;2024-02-15T01:46:50;8.72;99.99
66096;SHT31;53861;53.422;14.530;2024-02-15T01:49:19;8.80;99.99
66096;SHT31;53861;53.422;14.530;2024-02-15T01:51:49;8.91;99.99
66096;SHT31;53861;53.422;14.530;2024-02-15T01:54:18;8.88;99.99
66096;SHT31;53861;53.422;14.530;2024-02-15T01:56:46;8.84;99.99
66096;SHT31;53861;53.422;14.530;2024-02-15T01:59:15;8.87;99.99
66096;SHT31;53861;53.422;14.530;2024-02-15T02:01:43;8.75;99.99
66096;SHT31;53861;53.422;14.530;2024-02-15T02:04:12;8.84;99.99
66096;SHT31;53861;53.422;14.530;2024-02-15T02:06:41;8.88;99.99
66096;SHT31;53861;53.422;14.530;2024-02-15T02:09:10;8.84;99.99
66096;SHT31;53861;53.422;14.530;2024-02-15T02:11:38;8.91;99.99
66096;SHT31;53861;53.422;14.530;2024-02-15T02:14:06;8.84;99.99
66096;SHT31;53861;53.422;14.530;2024-02-15T02:16:33;8.92;99.99
66096;SHT31;53861;53.422;14.530;2024-02-15T02:19:01;8.88;99.99
66096;SHT31;53861;53.422;14.530;2024-02-15T02:21:34;8.81;99.99
66096;SHT31;53861;53.422;14.530;2024-02-15T02:24:03;8.89;99.99
66096;SHT31;53861;53.422;14.530;2024-02-15T02:26:35;8.97;99.99
66096;SHT31;53861;53.422;14.530;2024-02-15T02:29:03;8.94;99.99
66096;SHT31;53861;53.422;14.530;2024-02-15T02:31:32;8.98;99.99
66096;SHT31;53861;53.422;14.530;2024-02-15T02:34:00;8.95;99.99
66096;SHT31;53861;53.422;14.530;2024-02-15T02:36:27;8.82;99.99
66096;SHT31;53861;53.422;14.530;2024-02-15T02:38:55;8.88;99.99
66096;SHT31;53861;53.422;14.530;2024-02-15T02:41:26;8.94;99.99
66096;SHT31;53861;53.422;14.530;2024-02-15T02:43:56;9.01;99.99
66096;SHT31;53861;53.422;14.530;2024-02-15T02:46:24;8.91;99.99
66096;SHT31;53861;53.422;14.530;2024-02-15T02:48:51;8.95;99.99
66096;SHT31;53861;53.422;14.530;2024-02-15T02:51:18;8.95;99.99
66096;SHT31;53861;53.422;14.530;2024-02-15T02:53:46;8.95;99.99
66096;SHT31;53861;53.422;14.530;2024-02-15T02:56:13;8.88;99.99
66096;SHT31;53861;53.422;14.530;2024-02-15T02:58:40;8.94;99.99
66096;SHT31;53861;53.422;14.530;2024-02-15T03:01:10;9.00;99.99
66096;SHT31;53861;53.422;14.530;2024-02-15T03:03:39;9.00;99.99
66096;SHT31;53861;53.422;14.530;2024-02-15T03:06:06;8.87;99.99
66096;SHT31;53861;53.422;14.530;2024-02-15T03:08:33;8.94;99.99
66096;SHT31;53861;53.422;14.530;2024-02-15T03:11:01;8.97;99.99
66096;SHT31;53861;53.422;14.530;2024-02-15T03:13:29;8.81;99.99
66096;SHT31;53861;53.422;14.530;2024-02-15T03:15:56;8.87;99.99
66096;SHT31;53861;53.422;14.530;2024-02-15T03:18:25;8.87;99.99
66096;SHT31;53861;53.422;14.530;2024-02-15T03:20:52;8.84;99.99
66096;SHT31;53861;53.422;14.530;2024-02-15T03:23:19;8.80;99.99
66096;SHT31;53861;53.422;14.530;2024-02-15T03:25:46;8.91;99.99
66096;SHT31;53861;53.422;14.530;2024-02-15T03:28:14;8.95;99.99
66096;SHT31;53861;53.422;14.530;2024-02-15T03:30:42;8.95;99.99
66096;SHT31;53861;53.422;14.530;2024-02-15T03:33:10;8.89;99.99
66096;SHT31;53861;53.422;14.530;2024-02-15T03:35:39;8.95;99.99
66096;SHT31;53861;53.422;14.530;2024-02-15T03:38:07;8.91;99.99
66096;SHT31;53861;53.422;14.530;2024-02-15T03:40:34;9.00;99.99
66096;SHT31;53861;53.422;14.530;2024-02-15T03:43:03;8.82;99.99
66096;SHT31;53861;53.422;14.530;2024-02-15T03:45:32;8.94;99.99
66096;SHT31;53861;53.422;14.530;2024-02-15T03:47:59;8.89;99.99
66096;SHT31;53861;53.422;14.530;2024-02-15T03:50:27;8.95;99.99
66096;SHT31;53861;53.422;14.530;2024-02-15T03:52:56;9.01;99.99
66096;SHT31;53861;53.422;14.530;2024-02-15T03:55:24;9.04;99.99
66096;SHT31;53861;53.422;14.530;2024-02-15T03:57:52;9.04;99.99
66096;SHT31;53861;53.422;14.530;2024-02-15T04:00:21;9.05;99.99
66096;SHT31;53861;53.422;14.530;2024-02-15T04:02:50;9.11;99.99
66096;SHT31;53861;53.422;14.530;2024-02-15T04:05:17;9.00;99.99
66096;SHT31;53861;53.422;14.530;2024-02-15T04:07:46;8.91;99.99
66096;SHT31;53861;53.422;14.530;2024-02-15T04:10:15;8.91;99.99
66096;SHT31;53861;53.422;14.530;2024-02-15T04:12:44;8.91;99.99
66096;SHT31;53861;53.422;14.530;2024-02-15T04:15:11;8.94;99.99
66096;SHT31;53861;53.422;14.530;2024-02-15T04:17:41;9.01;99.99
66096;SHT31;53861;53.422;14.530;2024-02-15T04:20:10;8.97;99.99
66096;SHT31;53861;53.422;14.530;2024-02-15T04:22:38;8.92;99.99
66096;SHT31;53861;53.422;14.530;2024-02-15T04:25:08;8.89;99.99
66096;SHT31;53861;53.422;14.530;2024-02-15T04:27:37;8.88;99.99
66096;SHT31;53861;53.422;14.530;2024-02-15T04:30:05;8.95;99.99
66096;SHT31;53861;53.422;14.530;2024-02-15T04:32:35;8.98;99.99
66096;SHT31;53861;53.422;14.530;2024-02-15T04:35:02;9.00;99.99
66096;SHT31;53861;53.422;14.530;2024-02-15T04:37:31;8.92;99.99
66096;SHT31;53861;53.422;14.530;2024-02-15T04:40:00;8.88;99.99
66096;SHT31;53861;53.422;14.530;2024-02-15T04:42:34;9.04;99.99
66096;SHT31;53861;53.422;14.530;2024-02-15T04:45:05;9.04;99.99
66096;SHT31;53861;53.422;14.530;2024-02-15T04:47:34;9.01;99.99
66096;SHT31;53861;53.422;14.530;2024-02-15T04:50:02;9.05;99.99
66096;SHT31;53861;53.422;14.530;2024-02-15T04:52:31;8.88;99.99
66096;SHT31;53861;53.422;14.530;2024-02-15T04:54:59;8.97;99.99
66096;SHT31;53861;53.422;14.530;2024-02-15T04:57:26;9.07;99.99
66096;SHT31;53861;53.422;14.530;2024-02-15T04:59:54;9.07;99.99
66096;SHT31;53861;53.422;14.530;2024-02-15T05:02:23;9.02;99.99
66096;SHT31;53861;53.422;14.530;2024-02-15T05:04:51;8.97;99.99
66096;SHT31;53861;53.422;14.530;2024-02-15T05:07:23;9.04;99.99
66096;SHT31;53861;53.422;14.530;2024-02-15T05:09:50;8.98;99.99
66096;SHT31;53861;53.422;14.530;2024-02-15T05:12:24;9.02;99.99
66096;SHT31;53861;53.422;14.530;2024-02-15T05:14:51;9.02;99.99
66096;SHT31;53861;53.422;14.530;2024-02-15T05:17:19;9.04;99.99
66096;SHT31;53861;53.422;14.530;2024-02-15T05:19:49;9.05;99.99
66096;SHT31;53861;53.422;14.530;2024-02-15T05:22:16;8.97;99.99
66096;SHT31;53861;53.422;14.530;2024-02-15T05:24:44;9.01;99.99
66096;SHT31;53861;53.422;14.530;2024-02-15T05:27:12;9.10;99.99
66096;SHT31;53861;53.422;14.530;2024-02-15T05:29:39;9.00;99.99
66096;SHT31;53861;53.422;14.530;2024-02-15T05:32:09;8.98;99.99
66096;SHT31;53861;53.422;14.530;2024-02-15T05:34:36;8.94;99.99
66096;SHT31;53861;53.422;14.530;2024-02-15T05:37:07;9.00;99.99
66096;SHT31;53861;53.422;14.530;2024-02-15T05:39:34;9.04;99.99
66096;SHT31;53861;53.422;14.530;2024-02-15T05:42:01;8.89;99.99
66096;SHT31;53861;53.422;14.530;2024-02-15T05:44:29;8.94;99.99
66096;SHT31;53861;53.422;14.530;2024-02-15T05:46:56;9.01;99.99
66096;SHT31;53861;53.422;14.530;2024-02-15T05:49:23;8.98;99.99
66096;SHT31;53861;53.422;14.530;2024-02-15T05:51:51;9.04;99.99
66096;SHT31;53861;53.422;14.530;2024-02-15T05:54:21;8.98;99.99
66096;SHT31;53861;53.422;14.530;2024-02-15T05:56:49;9.01;99.99
66096;SHT31;53861;53.422;14.530;2024-02-15T05:59:19;8.98;99.99
66096;SHT31;53861;53.422;14.530;2024-02-15T06:01:47;8.88;99.99
66096;SHT31;53861;53.422;14.530;2024-02-15T06:04:15;8.94;99.99
66096;SHT31;53861;53.422;14.530;2024-02-15T06:06:42;8.89;99.99
66096;SHT31;53861;53.422;14.530;2024-02-15T06:09:16;8.92;99.99
66096;SHT31;53861;53.422;14.530;2024-02-15T06:11:49;9.01;99.99
66096;SHT31;53861;53.422;14.530;2024-02-15T06:14:17;8.94;99.99
66096;SHT31;53861;53.422;14.530;2024-02-15T06:16:44;8.88;99.99
66096;SHT31;53861;53.422;14.530;2024-02-15T06:19:13;8.91;99.99
66096;SHT31;53861;53.422;14.530;2024-02-15T06:21:41;8.97;99.99
66096;SHT31;53861;53.422;14.530;2024-02-15T06:24:08;8.98;99.99
66096;SHT31;53861;53.422;14.530;2024-02-15T06:26:36;9.07;99.99
66096;SHT31;53861;53.422;14.530;2024-02-15T06:29:04;9.08;99.99
66096;SHT31;53861;53.422;14.530;2024-02-15T06:31:49;9.10;99.99
66096;SHT31;53861;53.422;14.530;2024-02-15T06:34:34;9.04;99.99
66096;SHT31;53861;53.422;14.530;2024-02-15T06:37:36;9.07;99.99
66096;SHT31;53861;53.422;14.530;2024-02-15T06:40:21;9.11;99.99
66096;SHT31;53861;53.422;14.530;2024-02-15T06:42:48;9.07;99.99
66096;SHT31;53861;53.422;14.530;2024-02-15T06:45:17;9.04;99.99
66096;SHT31;53861;53.422;14.530;2024-02-15T06:47:45;9.01;99.99
66096;SHT31;53861;53.422;14.530;2024-02-15T06:50:13;9.08;99.99
66096;SHT31;53861;53.422;14.530;2024-02-15T06:52:41;9.04;99.99
66096;SHT31;53861;53.422;14.530;2024-02-15T06:55:08;9.10;99.99
66096;SHT31;53861;53.422;14.530;2024-02-15T06:57:38;9.12;99.99
66096;SHT31;53861;53.422;14.530;2024-02-15T07:00:07;9.14;99.99
66096;SHT31;53861;53.422;14.530;2024-02-15T07:02:36;9.08;99.99
66096;SHT31;53861;53.422;14.530;2024-02-15T07:05:04;9.11;99.99
66096;SHT31;53861;53.422;14.530;2024-02-15T07:07:32;9.04;99.99
66096;SHT31;53861;53.422;14.530;2024-02-15T07:10:00;9.18;99.99
66096;SHT31;53861;53.422;14.530;2024-02-15T07:12:28;9.21;99.99
66096;SHT31;53861;53.422;14.530;2024-02-15T07:14:58;9.21;99.99
66096;SHT31;53861;53.422;14.530;2024-02-15T07:17:27;9.21;99.99
66096;SHT31;53861;53.422;14.530;2024-02-15T07:19:56;9.23;99.99
66096;SHT31;53861;53.422;14.530;2024-02-15T07:22:23;9.21;99.99
66096;SHT31;53861;53.422;14.530;2024-02-15T07:24:50;9.15;99.99
66096;SHT31;53861;53.422;14.530;2024-02-15T07:27:18;9.29;99.99
66096;SHT31;53861;53.422;14.530;2024-02-15T07:29:48;9.36;99.99
66096;SHT31;53861;53.422;14.530;2024-02-15T07:32:16;9.31;99.99
66096;SHT31;53861;53.422;14.530;2024-02-15T07:34:43;9.38;99.99
66096;SHT31;53861;53.422;14.530;2024-02-15T07:37:14;9.46;99.99
66096;SHT31;53861;53.422;14.530;2024-02-15T07:39:42;9.40;99.99
66096;SHT31;53861;53.422;14.530;2024-02-15T07:42:09;9.33;99.99
66096;SHT31;53861;53.422;14.530;2024-02-15T07:44:38;9.38;99.99
66096;SHT31;53861;53.422;14.530;2024-02-15T07:47:05;9.32;99.99
66096;SHT31;53861;53.422;14.530;2024-02-15T07:49:33;9.43;99.99
66096;SHT31;53861;53.422;14.530;2024-02-15T07:52:00;9.42;99.99
66096;SHT31;53861;53.422;14.530;2024-02-15T07:54:31;9.45;99.99
66096;SHT31;53861;53.422;14.530;2024-02-15T07:56:59;9.42;99.99
66096;SHT31;53861;53.422;14.530;2024-02-15T07:59:26;9.38;99.99
66096;SHT31;53861;53.422;14.530;2024-02-15T08:01:52;9.32;99.99
66096;SHT31;53861;53.422;14.530;2024-02-15T08:04:20;9.49;99.99
66096;SHT31;53861;53.422;14.530;2024-02-15T08:06:47;9.52;99.99
66096;SHT31;53861;53.422;14.530;2024-02-15T08:09:15;9.57;99.99
66096;SHT31;53861;53.422;14.530;2024-02-15T08:11:45;9.56;99.99
66096;SHT31;53861;53.422;14.530;2024-02-15T08:14:12;9.59;99.99
66096;SHT31;53861;53.422;14.530;2024-02-15T08:16:39;9.66;99.99
66096;SHT31;53861;53.422;14.530;2024-02-15T08:19:07;9.65;99.99
66096;SHT31;53861;53.422;14.530;2024-02-15T08:21:34;9.69;99.99
66096;SHT31;53861;53.422;14.530;2024-02-15T08:24:04;9.67;99.99
66096;SHT31;53861;53.422;14.530;2024-02-15T08:26:32;9.60;99.99
66096;SHT31;53861;53.422;14.530;2024-02-15T08:29:01;9.63;99.99
66096;SHT31;53861;53.422;14.530;2024-02-15T08:31:29;9.69;99.99
66096;SHT31;53861;53.422;14.530;2024-02-15T08:33:57;9.70;99.99
66096;SHT31;53861;53.422;14.530;2024-02-15T08:36:26;9.70;99.99
66096;SHT31;53861;53.422;14.530;2024-02-15T08:38:54;9.80;99.99
66096;SHT31;53861;53.422;14.530;2024-02-15T08:41:21;9.79;99.99
66096;SHT31;53861;53.422;14.530;2024-02-15T08:43:52;9.90;99.99
66096;SHT31;53861;53.422;14.530;2024-02-15T08:46:24;9.96;99.99
66096;SHT31;53861;53.422;14.530;2024-02-15T08:48:59;10.03;99.99
66096;SHT31;53861;53.422;14.530;2024-02-15T08:51:27;9.97;99.99
66096;SHT31;53861;53.422;14.530;2024-02-15T08:53:56;10.01;99.99
66096;SHT31;53861;53.422;14.530;2024-02-15T08:56:23;10.08;99.99
66096;SHT31;53861;53.422;14.530;2024-02-15T08:58:50;10.16;99.99
66096;SHT31;53861;53.422;14.530;2024-02-15T09:01:25;10.07;99.99
66096;SHT31;53861;53.422;14.530;2024-02-15T09:03:52;10.06;99.99
66096;SHT31;53861;53.422;14.530;2024-02-15T09:06:19;10.10;99.99
66096;SHT31;53861;53.422;14.530;2024-02-15T09:08:48;10.07;99.99
66096;SHT31;53861;53.422;14.530;2024-02-15T09:11:16;10.17;99.99
66096;SHT31;53861;53.422;14.530;2024-02-15T09:13:43;10.28;99.99
66096;SHT31;53861;53.422;14.530;2024-02-15T09:16:10;10.33;99.99
66096;SHT31;53861;53.422;14.530;2024-02-15T09:18:39;10.37;99.99
66096;SHT31;53861;53.422;14.530;2024-02-15T09:21:11;10.41;99.99
66096;SHT31;53861;53.422;14.530;2024-02-15T09:23:38;10.20;99.99
66096;SHT31;53861;53.422;14.530;2024-02-15T09:26:05;10.37;99.99
66096;SHT31;53861;53.422;14.530;2024-02-15T09:28:39;10.40;99.99
66096;SHT31;53861;53.422;14.530;2024-02-15T09:31:06;10.41;99.99
66096;SHT31;53861;53.422;14.530;2024-02-15T09:33:34;10.34;99.99
66096;SHT31;53861;53.422;14.530;2024-02-15T09:36:03;10.28;99.99
66096;SHT31;53861;53.422;14.530;2024-02-15T09:38:30;10.35;99.99
66096;SHT31;53861;53.422;14.530;2024-02-15T09:40:57;10.37;99.99
66096;SHT31;53861;53.422;14.530;2024-02-15T09:43:24;10.38;99.99
66096;SHT31;53861;53.422;14.530;2024-02-15T09:45:52;10.44;99.99
66096;SHT31;53861;53.422;14.530;2024-02-15T09:48:23;10.48;99.99
66096;SHT31;53861;53.422;14.530;2024-02-15T09:50:52;10.51;99.99
66096;SHT31;53861;53.422;14.530;2024-02-15T09:53:22;10.58;99.99
66096;SHT31;53861;53.422;14.530;2024-02-15T09:55:53;10.65;99.99
66096;SHT31;53861;53.422;14.530;2024-02-15T09:58:22;10.73;99.99
66096;SHT31;53861;53.422;14.530;2024-02-15T10:00:50;10.73;99.99
66096;SHT31;53861;53.422;14.530;2024-02-15T10:03:18;10.75;99.99
66096;SHT31;53861;53.422;14.530;2024-02-15T10:05:48;10.73;99.99
66096;SHT31;53861;53.422;14.530;2024-02-15T10:08:16;10.69;99.99
66096;SHT31;53861;53.422;14.530;2024-02-15T10:10:45;10.61;99.99
66096;SHT31;53861;53.422;14.530;2024-02-15T10:13:13;10.59;99.99
66096;SHT31;53861;53.422;14.530;2024-02-15T10:15:41;10.48;99.99
66096;SHT31;53861;53.422;14.530;2024-02-15T10:18:10;10.65;99.99
66096;SHT31;53861;53.422;14.530;2024-02-15T10:20:38;10.69;99.99
66096;SHT31;53861;53.422;14.530;2024-02-15T10:23:10;10.73;99.99
66096;SHT31;53861;53.422;14.530;2024-02-15T10:25:38;10.85;99.99
66096;SHT31;53861;53.422;14.530;2024-02-15T10:28:08;10.80;99.99
66096;SHT31;53861;53.422;14.530;2024-02-15T10:30:36;10.79;99.99
66096;SHT31;53861;53.422;14.530;2024-02-15T10:33:04;10.76;99.99
66096;SHT31;53861;53.422;14.530;2024-02-15T10:35:33;10.86;99.99
66096;SHT31;53861;53.422;14.530;2024-02-15T10:38:07;10.89;99.99
66096;SHT31;53861;53.422;14.530;2024-02-15T10:40:36;10.76;99.99
66096;SHT31;53861;53.422;14.530;2024-02-15T10:43:04;10.78;99.99
66096;SHT31;53861;53.422;14.530;2024-02-15T10:45:35;10.89;99.99
66096;SHT31;53861;53.422;14.530;2024-02-15T10:48:06;11.00;99.99
66096;SHT31;53861;53.422;14.530;2024-02-15T10:50:35;10.98;99.99
66096;SHT31;53861;53.422;14.530;2024-02-15T10:53:11;10.96;99.99
66096;SHT31;53861;53.422;14.530;2024-02-15T10:55:53;11.13;99.99
66096;SHT31;53861;53.422;14.530;2024-02-15T10:58:24;11.10;99.99
66096;SHT31;53861;53.422;14.530;2024-02-15T11:00:54;11.20;99.99
66096;SHT31;53861;53.422;14.530;2024-02-15T11:03:25;11.40;99.99
66096;SHT31;53861;53.422;14.530;2024-02-15T11:06:02;11.36;99.99
66096;SHT31;53861;53.422;14.530;2024-02-15T11:08:35;11.50;99.99
66096;SHT31;53861;53.422;14.530;2024-02-15T11:11:03;11.41;99.99
66096;SHT31;53861;53.422;14.530;2024-02-15T11:13:31;11.59;99.99
66096;SHT31;53861;53.422;14.530;2024-02-15T11:16:00;11.51;99.99
66096;SHT31;53861;53.422;14.530;2024-02-15T11:18:45;11.66;99.99
66096;SHT31;53861;53.422;14.530;2024-02-15T11:21:15;11.75;99.99
66096;SHT31;53861;53.422;14.530;2024-02-15T11:23:43;11.90;99.99
66096;SHT31;53861;53.422;14.530;2024-02-15T11:26:42;12.01;99.99
66096;SHT31;53861;53.422;14.530;2024-02-15T11:35:11;11.81;99.99
66096;SHT31;53861;53.422;14.530;2024-02-15T11:37:53;11.84;99.99
66096;SHT31;53861;53.422;14.530;2024-02-15T11:40:22;11.97;99.99
66096;SHT31;53861;53.422;14.530;2024-02-15T11:42:51;11.97;99.99
66096;SHT31;53861;53.422;14.530;2024-02-15T11:45:19;12.02;99.99
66096;SHT31;53861;53.422;14.530;2024-02-15T11:47:48;12.01;99.99
66096;SHT31;53861;53.422;14.530;2024-02-15T11:50:18;12.22;99.99
66096;SHT31;53861;53.422;14.530;2024-02-15T11:52:47;12.08;99.99
66096;SHT31;53861;53.422;14.530;2024-02-15T11:55:18;12.18;99.99
66096;SHT31;53861;53.422;14.530;2024-02-15T11:57:56;12.32;99.99
66096;SHT31;53861;53.422;14.530;2024-02-15T12:00:30;12.46;99.99
66096;SHT31;53861;53.422;14.530;2024-02-15T12:03:15;12.36;99.99
66096;SHT31;53861;53.422;14.530;2024-02-15T12:06:02;12.39;99.99
66096;SHT31;53861;53.422;14.530;2024-02-15T12:08:47;12.41;99.99
66096;SHT31;53861;53.422;14.530;2024-02-15T12:11:32;12.15;99.99
66096;SHT31;53861;53.422;14.530;2024-02-15T12:14:17;12.25;99.99
66096;SHT31;53861;53.422;14.530;2024-02-15T12:17:05;12.18;99.99
66096;SHT31;53861;53.422;14.530;2024-02-15T12:19:51;12.22;99.99
66096;SHT31;53861;53.422;14.530;2024-02-15T12:22:24;12.15;99.99
66096;SHT31;53861;53.422;14.530;2024-02-15T12:24:53;12.18;99.99
66096;SHT31;53861;53.422;14.530;2024-02-15T12:27:22;12.26;99.99
66096;SHT31;53861;53.422;14.530;2024-02-15T12:29:54;12.20;99.99
66096;SHT31;53861;53.422;14.530;2024-02-15T12:32:22;12.17;99.99
66096;SHT31;53861;53.422;14.530;2024-02-15T12:34:50;12.22;99.99
66096;SHT31;53861;53.422;14.530;2024-02-15T12:37:19;12.24;99.99
66096;SHT31;53861;53.422;14.530;2024-02-15T12:39:49;12.08;99.99
66096;SHT31;53861;53.422;14.530;2024-02-15T12:42:17;12.21;99.99
66096;SHT31;53861;53.422;14.530;2024-02-15T12:44:46;12.15;99.99
66096;SHT31;53861;53.422;14.530;2024-02-15T12:47:20;12.28;99.99
66096;SHT31;53861;53.422;14.530;2024-02-15T12:49:49;12.25;99.99
66096;SHT31;53861;53.422;14.530;2024-02-15T12:52:34;12.38;99.99
66096;SHT31;53861;53.422;14.530;2024-02-15T12:55:10;12.32;99.99
66096;SHT31;53861;53.422;14.530;2024-02-15T12:57:38;12.32;99.99
66096;SHT31;53861;53.422;14.530;2024-02-15T13:00:09;12.31;99.99
66096;SHT31;53861;53.422;14.530;2024-02-15T13:02:40;12.21;99.99
66096;SHT31;53861;53.422;14.530;2024-02-15T13:05:08;12.26;99.99
66096;SHT31;53861;53.422;14.530;2024-02-15T13:07:36;12.32;99.99
66096;SHT31;53861;53.422;14.530;2024-02-15T13:10:05;12.21;99.99
66096;SHT31;53861;53.422;14.530;2024-02-15T13:12:35;12.15;99.99
66096;SHT31;53861;53.422;14.530;2024-02-15T13:15:04;12.17;99.99
66096;SHT31;53861;53.422;14.530;2024-02-15T13:17:32;12.25;99.99
66096;SHT31;53861;53.422;14.530;2024-02-15T13:20:00;12.31;99.99
66096;SHT31;53861;53.422;14.530;2024-02-15T13:22:36;12.33;99.99
66096;SHT31;53861;53.422;14.530;2024-02-15T13:25:05;12.24;99.99
66096;SHT31;53861;53.422;14.530;2024-02-15T13:27:35;12.14;99.99
66096;SHT31;53861;53.422;14.530;2024-02-15T13:30:05;12.18;99.99
66096;SHT31;53861;53.422;14.530;2024-02-15T13:32:35;12.22;99.99
66096;SHT31;53861;53.422;14.530;2024-02-15T13:37:42;11.98;99.99
66096;SHT31;53861;53.422;14.530;2024-02-15T13:40:10;11.95;99.99
66096;SHT31;53861;53.422;14.530;2024-02-15T13:42:43;12.12;99.99
66096;SHT31;53861;53.422;14.530;2024-02-15T13:45:16;12.11;99.99
66096;SHT31;53861;53.422;14.530;2024-02-15T13:47:46;12.02;99.99
66096;SHT31;53861;53.422;14.530;2024-02-15T13:50:14;11.99;99.99
66096;SHT31;53861;53.422;14.530;2024-02-15T13:52:42;12.20;99.99
66096;SHT31;53861;53.422;14.530;2024-02-15T13:55:11;12.43;99.99
66096;SHT31;53861;53.422;14.530;2024-02-15T13:57:40;12.41;99.99
66096;SHT31;53861;53.422;14.530;2024-02-15T14:00:10;12.46;99.99
66096;SHT31;53861;53.422;14.530;2024-02-15T14:02:47;12.49;99.99
66096;SHT31;53861;53.422;14.530;2024-02-15T14:05:15;12.55;99.99
66096;SHT31;53861;53.422;14.530;2024-02-15T14:07:47;12.53;99.99
66096;SHT31;53861;53.422;14.530;2024-02-15T14:10:15;12.42;99.99
66096;SHT31;53861;53.422;14.530;2024-02-15T14:12:44;12.50;99.99
66096;SHT31;53861;53.422;14.530;2024-02-15T14:15:14;12.43;99.99
66096;SHT31;53861;53.422;14.530;2024-02-15T14:17:41;12.35;99.99
66096;SHT31;53861;53.422;14.530;2024-02-15T14:20:11;12.36;99.99
66096;SHT31;53861;53.422;14.530;2024-02-15T14:22:39;12.39;99.99
66096;SHT31;53861;53.422;14.530;2024-02-15T14:25:07;12.26;99.99
66096;SHT31;53861;53.422;14.530;2024-02-15T14:27:35;12.18;99.99
66096;SHT31;53861;53.422;14.530;2024-02-15T14:30:04;12.20;99.99
66096;SHT31;53861;53.422;14.530;2024-02-15T14:32:51;12.20;99.99
66096;SHT31;53861;53.422;14.530;2024-02-15T14:35:30;12.20;99.99
66096;SHT31;53861;53.422;14.530;2024-02-15T14:38:01;12.26;99.99
66096;SHT31;53861;53.422;14.530;2024-02-15T14:40:33;12.06;99.99
66096;SHT31;53861;53.422;14.530;2024-02-15T14:43:00;12.15;99.99
66096;SHT31;53861;53.422;14.530;2024-02-15T14:45:28;12.17;99.99
66096;SHT31;53861;53.422;14.530;2024-02-15T14:47:58;12.12;99.99
66096;SHT31;53861;53.422;14.530;2024-02-15T14:50:25;12.24;99.99
66096;SHT31;53861;53.422;14.530;2024-02-15T14:52:53;12.28;99.99
66096;SHT31;53861;53.422;14.530;2024-02-15T14:55:20;12.17;99.99
66096;SHT31;53861;53.422;14.530;2024-02-15T14:57:48;12.15;99.99
66096;SHT31;53861;53.422;14.530;2024-02-15T15:00:16;12.08;99.99
66096;SHT31;53861;53.422;14.530;2024-02-15T15:02:45;12.08;99.99
66096;SHT31;53861;53.422;14.530;2024-02-15T15:05:15;12.08;99.99
66096;SHT31;53861;53.422;14.530;2024-02-15T15:07:59;12.06;99.99
66096;SHT31;53861;53.422;14.530;2024-02-15T15:10:45;12.17;99.99
66096;SHT31;53861;53.422;14.530;2024-02-15T15:13:32;12.12;99.99
66096;SHT31;53861;53.422;14.530;2024-02-15T15:16:00;12.18;99.99
66096;SHT31;53861;53.422;14.530;2024-02-15T15:18:28;12.10;99.99
66096;SHT31;53861;53.422;14.530;2024-02-15T15:20:59;12.11;99.99
66096;SHT31;53861;53.422;14.530;2024-02-15T15:23:27;12.12;99.99
66096;SHT31;53861;53.422;14.530;2024-02-15T15:25:56;11.99;99.99
66096;SHT31;53861;53.422;14.530;2024-02-15T15:28:24;11.97;99.99
66096;SHT31;53861;53.422;14.530;2024-02-15T15:30:51;11.94;99.99
66096;SHT31;53861;53.422;14.530;2024-02-15T15:33:18;12.01;99.99
66096;SHT31;53861;53.422;14.530;2024-02-15T15:35:46;11.99;99.99
66096;SHT31;53861;53.422;14.530;2024-02-15T15:38:16;11.91;99.99
66096;SHT31;53861;53.422;14.530;2024-02-15T15:40:43;11.84;99.99
66096;SHT31;53861;53.422;14.530;2024-02-15T15:43:11;11.87;99.99
66096;SHT31;53861;53.422;14.530;2024-02-15T15:45:39;11.81;99.99
66096;SHT31;53861;53.422;14.530;2024-02-15T15:48:07;11.78;99.99